sensor_id;sensor_type;location;lat;lon;timestamp;temperature;humidity
21061;DHT22;10689;50.836;3.266;2022-07-19T00:01:45;23.20;99.90
21061;DHT22;10689;50.836;3.266;2022-07-19T00:04:10;23.20;99.90
21061;DHT22;10689;50.836;3.266;2022-07-19T00:06:36;23.30;99.90
21061;DHT22;10689;50.836;3.266;2022-07-19T00:09:03;23.30;99.90
21061;DHT22;10689;50.836;3.266;2022-07-19T00:11:30;23.30;99.90
21061;DHT22;10689;50.836;3.266;2022-07-19T00:13:56;23.30;99.90
21061;DHT22;10689;50.836;3.266;2022-07-19T00:16:22;23.30;99.90
21061;DHT22;10689;50.836;3.266;2022-07-19T00:18:48;23.30;99.90
21061;DHT22;10689;50.836;3.266;2022-07-19T00:21:13;23.20;99.90
21061;DHT22;10689;50.836;3.266;2022-07-19T00:23:39;23.10;99.90
21061;DHT22;10689;50.836;3.266;2022-07-19T00:26:05;23.00;99.90
21061;DHT22;10689;50.836;3.266;2022-07-19T00:28:31;23.00;99.90
21061;DHT22;10689;50.836;3.266;2022-07-19T00:30:57;23.00;99.90
21061;DHT22;10689;50.836;3.266;2022-07-19T00:33:23;22.90;99.90
21061;DHT22;10689;50.836;3.266;2022-07-19T00:35:49;22.90;99.90
21061;DHT22;10689;50.836;3.266;2022-07-19T00:38:15;22.80;99.90
21061;DHT22;10689;50.836;3.266;2022-07-19T00:40:41;22.80;99.90
21061;DHT22;10689;50.836;3.266;2022-07-19T00:43:10;22.70;99.90
21061;DHT22;10689;50.836;3.266;2022-07-19T00:45:36;22.70;99.90
21061;DHT22;10689;50.836;3.266;2022-07-19T00:48:02;22.60;99.90
21061;DHT22;10689;50.836;3.266;2022-07-19T00:50:29;22.60;99.90
21061;DHT22;10689;50.836;3.266;2022-07-19T00:53:00;22.70;99.90
21061;DHT22;10689;50.836;3.266;2022-07-19T00:55:29;22.70;99.90
21061;DHT22;10689;50.836;3.266;2022-07-19T00:57:56;22.70;99.90
21061;DHT22;10689;50.836;3.266;2022-07-19T01:00:22;22.70;99.90
21061;DHT22;10689;50.836;3.266;2022-07-19T01:02:47;22.70;99.90
21061;DHT22;10689;50.836;3.266;2022-07-19T01:05:13;22.70;99.90
21061;DHT22;10689;50.836;3.266;2022-07-19T01:07:40;22.60;99.90
21061;DHT22;10689;50.836;3.266;2022-07-19T01:10:08;22.50;99.90
21061;DHT22;10689;50.836;3.266;2022-07-19T01:12:35;22.50;99.90
21061;DHT22;10689;50.836;3.266;2022-07-19T01:15:01;22.50;99.90
21061;DHT22;10689;50.836;3.266;2022-07-19T01:17:27;22.50;99.90
21061;DHT22;10689;50.836;3.266;2022-07-19T01:19:53;22.50;99.90
21061;DHT22;10689;50.836;3.266;2022-07-19T01:22:20;22.50;99.90
21061;DHT22;10689;50.836;3.266;2022-07-19T01:24:45;22.40;99.90
21061;DHT22;10689;50.836;3.266;2022-07-19T01:27:11;22.40;99.90
21061;DHT22;10689;50.836;3.266;2022-07-19T01:29:37;22.40;99.90
21061;DHT22;10689;50.836;3.266;2022-07-19T01:32:04;22.40;99.90
21061;DHT22;10689;50.836;3.266;2022-07-19T01:34:30;22.40;99.90
21061;DHT22;10689;50.836;3.266;2022-07-19T01:36:56;22.40;99.90
21061;DHT22;10689;50.836;3.266;2022-07-19T01:39:22;22.30;99.90
21061;DHT22;10689;50.836;3.266;2022-07-19T01:41:48;22.30;99.90
21061;DHT22;10689;50.836;3.266;2022-07-19T01:44:13;22.30;99.90
21061;DHT22;10689;50.836;3.266;2022-07-19T01:46:39;22.30;99.90
21061;DHT22;10689;50.836;3.266;2022-07-19T01:49:05;22.20;99.90
21061;DHT22;10689;50.836;3.266;2022-07-19T01:51:31;22.30;99.90
21061;DHT22;10689;50.836;3.266;2022-07-19T01:53:57;22.30;99.90
21061;DHT22;10689;50.836;3.266;2022-07-19T01:56:22;22.20;99.90
21061;DHT22;10689;50.836;3.266;2022-07-19T01:58:48;22.10;99.90
21061;DHT22;10689;50.836;3.266;2022-07-19T02:01:14;22.00;99.90
21061;DHT22;10689;50.836;3.266;2022-07-19T02:03:40;21.90;99.90
21061;DHT22;10689;50.836;3.266;2022-07-19T02:06:06;21.80;99.90
21061;DHT22;10689;50.836;3.266;2022-07-19T02:08:32;21.70;99.90
21061;DHT22;10689;50.836;3.266;2022-07-19T02:10:58;21.70;99.90
21061;DHT22;10689;50.836;3.266;2022-07-19T02:13:47;21.70;99.90
21061;DHT22;10689;50.836;3.266;2022-07-19T02:16:13;21.60;99.90
21061;DHT22;10689;50.836;3.266;2022-07-19T02:18:40;21.50;99.90
21061;DHT22;10689;50.836;3.266;2022-07-19T02:21:05;21.50;99.90
21061;DHT22;10689;50.836;3.266;2022-07-19T02:23:31;21.40;99.90
21061;DHT22;10689;50.836;3.266;2022-07-19T02:25:56;21.40;99.90
21061;DHT22;10689;50.836;3.266;2022-07-19T02:28:22;21.40;99.90
21061;DHT22;10689;50.836;3.266;2022-07-19T02:30:48;21.40;99.90
21061;DHT22;10689;50.836;3.266;2022-07-19T02:33:13;21.40;99.90
21061;DHT22;10689;50.836;3.266;2022-07-19T02:35:39;21.30;99.90
21061;DHT22;10689;50.836;3.266;2022-07-19T02:38:05;21.30;99.90
21061;DHT22;10689;50.836;3.266;2022-07-19T02:40:30;21.30;99.90
21061;DHT22;10689;50.836;3.266;2022-07-19T02:42:57;21.20;99.90
21061;DHT22;10689;50.836;3.266;2022-07-19T02:45:22;21.10;99.90
21061;DHT22;10689;50.836;3.266;2022-07-19T02:47:48;21.10;99.90
21061;DHT22;10689;50.836;3.266;2022-07-19T02:50:14;21.00;99.90
21061;DHT22;10689;50.836;3.266;2022-07-19T02:52:40;21.00;99.90
21061;DHT22;10689;50.836;3.266;2022-07-19T02:55:06;20.90;99.90
21061;DHT22;10689;50.836;3.266;2022-07-19T02:57:32;20.90;99.90
21061;DHT22;10689;50.836;3.266;2022-07-19T02:59:57;20.80;99.90
21061;DHT22;10689;50.836;3.266;2022-07-19T03:02:23;20.80;99.90
21061;DHT22;10689;50.836;3.266;2022-07-19T03:04:49;20.70;99.90
21061;DHT22;10689;50.836;3.266;2022-07-19T03:07:15;20.60;99.90
21061;DHT22;10689;50.836;3.266;2022-07-19T03:09:41;20.70;99.90
21061;DHT22;10689;50.836;3.266;2022-07-19T03:12:07;20.70;99.90
21061;DHT22;10689;50.836;3.266;2022-07-19T03:14:33;20.60;99.90
21061;DHT22;10689;50.836;3.266;2022-07-19T03:16:59;20.60;99.90
21061;DHT22;10689;50.836;3.266;2022-07-19T03:19:24;20.60;99.90
21061;DHT22;10689;50.836;3.266;2022-07-19T03:21:53;20.50;99.90
21061;DHT22;10689;50.836;3.266;2022-07-19T03:24:18;20.50;99.90
21061;DHT22;10689;50.836;3.266;2022-07-19T03:26:44;20.50;99.90
21061;DHT22;10689;50.836;3.266;2022-07-19T03:29:10;20.50;99.90
21061;DHT22;10689;50.836;3.266;2022-07-19T03:31:36;20.50;99.90
21061;DHT22;10689;50.836;3.266;2022-07-19T03:34:02;20.40;99.90
21061;DHT22;10689;50.836;3.266;2022-07-19T03:36:28;20.50;99.90
21061;DHT22;10689;50.836;3.266;2022-07-19T03:38:54;20.40;99.90
21061;DHT22;10689;50.836;3.266;2022-07-19T03:41:20;20.50;99.90
21061;DHT22;10689;50.836;3.266;2022-07-19T03:43:45;20.50;99.90
21061;DHT22;10689;50.836;3.266;2022-07-19T03:46:11;20.40;99.90
21061;DHT22;10689;50.836;3.266;2022-07-19T03:48:37;20.40;99.90
21061;DHT22;10689;50.836;3.266;2022-07-19T03:51:02;20.40;99.90
21061;DHT22;10689;50.836;3.266;2022-07-19T03:53:28;20.30;99.90
21061;DHT22;10689;50.836;3.266;2022-07-19T03:55:54;20.30;99.90
21061;DHT22;10689;50.836;3.266;2022-07-19T03:58:19;20.40;99.90
21061;DHT22;10689;50.836;3.266;2022-07-19T04:00:45;20.40;99.90
21061;DHT22;10689;50.836;3.266;2022-07-19T04:03:12;20.40;99.90
21061;DHT22;10689;50.836;3.266;2022-07-19T04:05:38;20.40;99.90
21061;DHT22;10689;50.836;3.266;2022-07-19T04:08:04;20.40;99.90
21061;DHT22;10689;50.836;3.266;2022-07-19T04:10:30;20.50;99.90
21061;DHT22;10689;50.836;3.266;2022-07-19T04:12:56;20.50;99.90
21061;DHT22;10689;50.836;3.266;2022-07-19T04:15:21;20.50;99.90
21061;DHT22;10689;50.836;3.266;2022-07-19T04:17:47;20.60;99.90
21061;DHT22;10689;50.836;3.266;2022-07-19T04:20:13;20.60;99.90
21061;DHT22;10689;50.836;3.266;2022-07-19T04:22:39;20.50;99.90
21061;DHT22;10689;50.836;3.266;2022-07-19T04:25:05;20.60;99.90
21061;DHT22;10689;50.836;3.266;2022-07-19T04:27:31;20.70;99.90
21061;DHT22;10689;50.836;3.266;2022-07-19T04:29:57;20.70;99.90
21061;DHT22;10689;50.836;3.266;2022-07-19T04:32:23;20.70;99.90
21061;DHT22;10689;50.836;3.266;2022-07-19T04:34:49;20.80;99.90
21061;DHT22;10689;50.836;3.266;2022-07-19T04:37:15;20.90;99.90
21061;DHT22;10689;50.836;3.266;2022-07-19T04:39:41;20.90;99.90
21061;DHT22;10689;50.836;3.266;2022-07-19T04:42:07;21.00;99.90
21061;DHT22;10689;50.836;3.266;2022-07-19T04:44:33;21.00;99.90
21061;DHT22;10689;50.836;3.266;2022-07-19T04:46:59;21.10;99.90
21061;DHT22;10689;50.836;3.266;2022-07-19T04:49:26;21.10;99.90
21061;DHT22;10689;50.836;3.266;2022-07-19T04:51:51;21.20;99.90
21061;DHT22;10689;50.836;3.266;2022-07-19T04:54:17;21.20;99.90
21061;DHT22;10689;50.836;3.266;2022-07-19T04:56:44;21.30;99.90
21061;DHT22;10689;50.836;3.266;2022-07-19T04:59:10;21.30;99.90
21061;DHT22;10689;50.836;3.266;2022-07-19T05:01:35;21.40;99.90
21061;DHT22;10689;50.836;3.266;2022-07-19T05:04:01;21.50;99.90
21061;DHT22;10689;50.836;3.266;2022-07-19T05:06:27;21.60;99.90
21061;DHT22;10689;50.836;3.266;2022-07-19T05:08:52;21.70;99.90
21061;DHT22;10689;50.836;3.266;2022-07-19T05:11:19;22.00;99.90
21061;DHT22;10689;50.836;3.266;2022-07-19T05:13:45;22.10;99.90
21061;DHT22;10689;50.836;3.266;2022-07-19T05:16:13;22.30;99.90
21061;DHT22;10689;50.836;3.266;2022-07-19T05:18:39;22.50;99.90
21061;DHT22;10689;50.836;3.266;2022-07-19T05:21:05;22.70;99.90
21061;DHT22;10689;50.836;3.266;2022-07-19T05:23:31;22.80;99.90
21061;DHT22;10689;50.836;3.266;2022-07-19T05:25:57;22.90;99.90
21061;DHT22;10689;50.836;3.266;2022-07-19T05:28:23;23.00;99.90
21061;DHT22;10689;50.836;3.266;2022-07-19T05:30:49;23.20;99.90
21061;DHT22;10689;50.836;3.266;2022-07-19T05:33:15;23.30;99.90
21061;DHT22;10689;50.836;3.266;2022-07-19T05:35:42;23.50;99.90
21061;DHT22;10689;50.836;3.266;2022-07-19T05:38:08;23.60;99.90
21061;DHT22;10689;50.836;3.266;2022-07-19T05:40:33;23.80;99.90
21061;DHT22;10689;50.836;3.266;2022-07-19T05:42:59;24.00;99.90
21061;DHT22;10689;50.836;3.266;2022-07-19T05:45:26;24.20;99.90
21061;DHT22;10689;50.836;3.266;2022-07-19T05:47:52;24.40;99.90
21061;DHT22;10689;50.836;3.266;2022-07-19T05:50:17;24.60;99.90
21061;DHT22;10689;50.836;3.266;2022-07-19T05:52:43;24.80;99.90
21061;DHT22;10689;50.836;3.266;2022-07-19T05:55:09;25.00;99.90
21061;DHT22;10689;50.836;3.266;2022-07-19T05:57:35;25.20;99.90
21061;DHT22;10689;50.836;3.266;2022-07-19T06:00:00;25.40;99.90
21061;DHT22;10689;50.836;3.266;2022-07-19T06:02:27;25.60;99.90
21061;DHT22;10689;50.836;3.266;2022-07-19T06:04:52;25.70;99.90
21061;DHT22;10689;50.836;3.266;2022-07-19T06:07:18;25.90;99.90
21061;DHT22;10689;50.836;3.266;2022-07-19T06:09:45;26.20;99.90
21061;DHT22;10689;50.836;3.266;2022-07-19T06:12:10;26.40;99.90
21061;DHT22;10689;50.836;3.266;2022-07-19T06:14:36;26.60;99.90
21061;DHT22;10689;50.836;3.266;2022-07-19T06:17:01;26.70;99.90
21061;DHT22;10689;50.836;3.266;2022-07-19T06:19:27;26.90;99.90
21061;DHT22;10689;50.836;3.266;2022-07-19T06:21:53;27.10;99.90
21061;DHT22;10689;50.836;3.266;2022-07-19T06:24:19;27.20;99.90
21061;DHT22;10689;50.836;3.266;2022-07-19T06:26:45;27.40;99.90
21061;DHT22;10689;50.836;3.266;2022-07-19T06:29:10;27.70;99.90
21061;DHT22;10689;50.836;3.266;2022-07-19T06:31:36;27.90;99.90
21061;DHT22;10689;50.836;3.266;2022-07-19T06:34:02;28.00;99.90
21061;DHT22;10689;50.836;3.266;2022-07-19T06:36:27;28.10;99.90
21061;DHT22;10689;50.836;3.266;2022-07-19T06:38:53;28.30;99.90
21061;DHT22;10689;50.836;3.266;2022-07-19T06:41:19;28.40;99.90
21061;DHT22;10689;50.836;3.266;2022-07-19T06:43:46;28.50;99.90
21061;DHT22;10689;50.836;3.266;2022-07-19T06:46:11;28.60;99.90
21061;DHT22;10689;50.836;3.266;2022-07-19T06:48:37;28.70;99.90
21061;DHT22;10689;50.836;3.266;2022-07-19T06:51:05;28.80;99.90
21061;DHT22;10689;50.836;3.266;2022-07-19T06:53:31;29.00;99.90
21061;DHT22;10689;50.836;3.266;2022-07-19T06:55:56;29.10;99.90
21061;DHT22;10689;50.836;3.266;2022-07-19T06:58:22;29.20;99.90
21061;DHT22;10689;50.836;3.266;2022-07-19T07:00:48;29.10;99.90
21061;DHT22;10689;50.836;3.266;2022-07-19T07:03:17;29.30;99.90
21061;DHT22;10689;50.836;3.266;2022-07-19T07:05:44;29.50;99.90
21061;DHT22;10689;50.836;3.266;2022-07-19T07:08:10;29.50;99.90
21061;DHT22;10689;50.836;3.266;2022-07-19T07:10:35;29.60;99.90
21061;DHT22;10689;50.836;3.266;2022-07-19T07:13:01;29.70;99.90
21061;DHT22;10689;50.836;3.266;2022-07-19T07:15:27;29.70;99.90
21061;DHT22;10689;50.836;3.266;2022-07-19T07:17:53;29.90;99.90
21061;DHT22;10689;50.836;3.266;2022-07-19T07:20:18;30.00;99.90
21061;DHT22;10689;50.836;3.266;2022-07-19T07:22:45;30.00;99.90
21061;DHT22;10689;50.836;3.266;2022-07-19T07:25:10;30.20;99.90
21061;DHT22;10689;50.836;3.266;2022-07-19T07:27:36;30.30;99.90
21061;DHT22;10689;50.836;3.266;2022-07-19T07:30:03;30.30;99.90
21061;DHT22;10689;50.836;3.266;2022-07-19T07:32:29;30.30;99.90
21061;DHT22;10689;50.836;3.266;2022-07-19T07:34:55;30.30;99.90
21061;DHT22;10689;50.836;3.266;2022-07-19T07:37:21;30.40;99.90
21061;DHT22;10689;50.836;3.266;2022-07-19T07:39:46;30.50;99.90
21061;DHT22;10689;50.836;3.266;2022-07-19T07:42:12;30.60;99.90
21061;DHT22;10689;50.836;3.266;2022-07-19T07:44:38;30.70;99.90
21061;DHT22;10689;50.836;3.266;2022-07-19T07:47:04;30.70;99.90
21061;DHT22;10689;50.836;3.266;2022-07-19T07:49:32;30.80;99.90
21061;DHT22;10689;50.836;3.266;2022-07-19T07:51:57;31.00;99.90
21061;DHT22;10689;50.836;3.266;2022-07-19T07:54:23;31.10;99.90
21061;DHT22;10689;50.836;3.266;2022-07-19T07:56:49;31.20;99.90
21061;DHT22;10689;50.836;3.266;2022-07-19T07:59:14;31.30;99.90
21061;DHT22;10689;50.836;3.266;2022-07-19T08:01:40;31.30;99.90
21061;DHT22;10689;50.836;3.266;2022-07-19T08:04:08;31.30;99.90
21061;DHT22;10689;50.836;3.266;2022-07-19T08:06:34;31.40;99.90
21061;DHT22;10689;50.836;3.266;2022-07-19T08:09:00;31.50;99.90
21061;DHT22;10689;50.836;3.266;2022-07-19T08:11:26;31.60;99.90
21061;DHT22;10689;50.836;3.266;2022-07-19T08:13:52;31.70;99.90
21061;DHT22;10689;50.836;3.266;2022-07-19T08:16:17;31.80;99.90
21061;DHT22;10689;50.836;3.266;2022-07-19T08:18:43;32.00;99.90
21061;DHT22;10689;50.836;3.266;2022-07-19T08:21:09;32.10;99.90
21061;DHT22;10689;50.836;3.266;2022-07-19T08:23:35;32.10;99.90
21061;DHT22;10689;50.836;3.266;2022-07-19T08:26:01;32.10;99.90
21061;DHT22;10689;50.836;3.266;2022-07-19T08:28:26;32.10;99.90
21061;DHT22;10689;50.836;3.266;2022-07-19T08:30:52;32.10;99.90
21061;DHT22;10689;50.836;3.266;2022-07-19T08:33:18;32.20;99.90
21061;DHT22;10689;50.836;3.266;2022-07-19T08:35:44;32.20;99.90
21061;DHT22;10689;50.836;3.266;2022-07-19T08:38:10;32.40;99.90
21061;DHT22;10689;50.836;3.266;2022-07-19T08:40:37;32.50;99.90
21061;DHT22;10689;50.836;3.266;2022-07-19T08:43:07;32.70;99.90
21061;DHT22;10689;50.836;3.266;2022-07-19T08:45:35;32.90;99.90
21061;DHT22;10689;50.836;3.266;2022-07-19T08:48:04;32.80;99.90
21061;DHT22;10689;50.836;3.266;2022-07-19T08:50:30;32.80;99.90
21061;DHT22;10689;50.836;3.266;2022-07-19T08:52:57;32.80;99.90
21061;DHT22;10689;50.836;3.266;2022-07-19T08:55:24;32.80;99.90
21061;DHT22;10689;50.836;3.266;2022-07-19T08:57:50;33.00;99.90
21061;DHT22;10689;50.836;3.266;2022-07-19T09:00:32;33.10;99.90
21061;DHT22;10689;50.836;3.266;2022-07-19T09:02:59;33.20;99.90
21061;DHT22;10689;50.836;3.266;2022-07-19T09:05:26;33.30;99.90
21061;DHT22;10689;50.836;3.266;2022-07-19T09:08:03;33.40;99.90
21061;DHT22;10689;50.836;3.266;2022-07-19T09:10:29;33.60;99.30
21061;DHT22;10689;50.836;3.266;2022-07-19T09:13:06;33.70;98.90
21061;DHT22;10689;50.836;3.266;2022-07-19T09:15:48;33.90;99.20
21061;DHT22;10689;50.836;3.266;2022-07-19T09:20:47;34.20;98.00
21061;DHT22;10689;50.836;3.266;2022-07-19T09:23:14;34.40;97.40
21061;DHT22;10689;50.836;3.266;2022-07-19T09:25:43;34.60;98.70
21061;DHT22;10689;50.836;3.266;2022-07-19T09:28:10;34.50;98.10
21061;DHT22;10689;50.836;3.266;2022-07-19T09:30:41;34.60;97.80
21061;DHT22;10689;50.836;3.266;2022-07-19T09:33:14;34.60;97.50
21061;DHT22;10689;50.836;3.266;2022-07-19T09:35:47;34.70;98.40
21061;DHT22;10689;50.836;3.266;2022-07-19T09:38:28;34.70;97.10
21061;DHT22;10689;50.836;3.266;2022-07-19T09:41:17;34.80;97.30
21061;DHT22;10689;50.836;3.266;2022-07-19T09:43:53;35.00;97.20
21061;DHT22;10689;50.836;3.266;2022-07-19T09:46:32;35.00;97.00
21061;DHT22;10689;50.836;3.266;2022-07-19T09:49:12;35.20;97.80
21061;DHT22;10689;50.836;3.266;2022-07-19T09:51:49;35.40;96.80
21061;DHT22;10689;50.836;3.266;2022-07-19T09:54:17;35.50;96.70
21061;DHT22;10689;50.836;3.266;2022-07-19T09:56:45;35.70;97.20
21061;DHT22;10689;50.836;3.266;2022-07-19T09:59:12;35.80;95.90
21061;DHT22;10689;50.836;3.266;2022-07-19T10:01:38;36.00;95.60
21061;DHT22;10689;50.836;3.266;2022-07-19T10:04:13;36.00;96.20
21061;DHT22;10689;50.836;3.266;2022-07-19T10:06:40;36.00;95.50
21061;DHT22;10689;50.836;3.266;2022-07-19T10:09:09;36.10;95.00
21061;DHT22;10689;50.836;3.266;2022-07-19T10:11:36;36.10;95.10
21061;DHT22;10689;50.836;3.266;2022-07-19T10:14:03;36.00;95.80
21061;DHT22;10689;50.836;3.266;2022-07-19T10:21:50;36.10;94.60
21061;DHT22;10689;50.836;3.266;2022-07-19T10:24:56;36.30;95.10
21061;DHT22;10689;50.836;3.266;2022-07-19T10:32:28;36.70;94.10
21061;DHT22;10689;50.836;3.266;2022-07-19T10:40:48;37.10;93.50
21061;DHT22;10689;50.836;3.266;2022-07-19T10:43:16;37.20;92.60
21061;DHT22;10689;50.836;3.266;2022-07-19T10:46:07;37.30;91.70
21061;DHT22;10689;50.836;3.266;2022-07-19T10:48:42;37.30;91.40
21061;DHT22;10689;50.836;3.266;2022-07-19T10:51:13;37.30;91.30
21061;DHT22;10689;50.836;3.266;2022-07-19T10:54:08;37.40;92.30
21061;DHT22;10689;50.836;3.266;2022-07-19T10:56:35;37.30;92.10
21061;DHT22;10689;50.836;3.266;2022-07-19T10:59:09;37.40;92.40
21061;DHT22;10689;50.836;3.266;2022-07-19T11:01:36;37.40;91.70
21061;DHT22;10689;50.836;3.266;2022-07-19T11:06:46;37.60;91.50
21061;DHT22;10689;50.836;3.266;2022-07-19T11:09:12;37.80;91.60
21061;DHT22;10689;50.836;3.266;2022-07-19T11:11:38;37.90;92.10
21061;DHT22;10689;50.836;3.266;2022-07-19T11:14:04;38.10;91.30
21061;DHT22;10689;50.836;3.266;2022-07-19T11:16:30;38.20;90.80
21061;DHT22;10689;50.836;3.266;2022-07-19T11:19:07;38.40;91.20
21061;DHT22;10689;50.836;3.266;2022-07-19T11:21:34;38.50;90.60
21061;DHT22;10689;50.836;3.266;2022-07-19T11:24:03;38.70;90.20
21061;DHT22;10689;50.836;3.266;2022-07-19T11:26:36;38.60;91.20
21061;DHT22;10689;50.836;3.266;2022-07-19T11:29:02;38.70;88.90
21061;DHT22;10689;50.836;3.266;2022-07-19T11:31:28;38.60;88.00
21061;DHT22;10689;50.836;3.266;2022-07-19T11:33:55;38.60;90.30
21061;DHT22;10689;50.836;3.266;2022-07-19T11:36:24;38.50;89.50
21061;DHT22;10689;50.836;3.266;2022-07-19T11:38:58;38.70;90.00
21061;DHT22;10689;50.836;3.266;2022-07-19T11:41:29;38.70;86.80
21061;DHT22;10689;50.836;3.266;2022-07-19T11:46:26;38.80;87.50
21061;DHT22;10689;50.836;3.266;2022-07-19T11:48:56;38.90;86.80
21061;DHT22;10689;50.836;3.266;2022-07-19T11:51:22;39.10;88.10
21061;DHT22;10689;50.836;3.266;2022-07-19T11:53:49;39.20;87.80
21061;DHT22;10689;50.836;3.266;2022-07-19T11:56:25;39.30;85.60
21061;DHT22;10689;50.836;3.266;2022-07-19T11:58:52;39.40;86.40
21061;DHT22;10689;50.836;3.266;2022-07-19T12:01:26;39.60;85.80
21061;DHT22;10689;50.836;3.266;2022-07-19T12:06:40;39.60;84.20
21061;DHT22;10689;50.836;3.266;2022-07-19T12:09:14;39.70;85.70
21061;DHT22;10689;50.836;3.266;2022-07-19T12:14:31;39.80;85.10
21061;DHT22;10689;50.836;3.266;2022-07-19T12:17:20;39.90;84.10
21061;DHT22;10689;50.836;3.266;2022-07-19T12:19:50;39.90;83.70
21061;DHT22;10689;50.836;3.266;2022-07-19T12:24:59;40.10;83.50
21061;DHT22;10689;50.836;3.266;2022-07-19T12:27:24;40.20;82.40
21061;DHT22;10689;50.836;3.266;2022-07-19T12:29:55;40.30;82.80
21061;DHT22;10689;50.836;3.266;2022-07-19T12:32:30;40.40;84.40
21061;DHT22;10689;50.836;3.266;2022-07-19T12:35:00;40.50;83.50
21061;DHT22;10689;50.836;3.266;2022-07-19T12:40:20;40.80;83.50
21061;DHT22;10689;50.836;3.266;2022-07-19T12:42:51;40.80;82.90
21061;DHT22;10689;50.836;3.266;2022-07-19T12:45:26;40.80;85.10
21061;DHT22;10689;50.836;3.266;2022-07-19T12:47:53;40.90;83.30
21061;DHT22;10689;50.836;3.266;2022-07-19T12:50:33;40.90;83.70
21061;DHT22;10689;50.836;3.266;2022-07-19T12:53:01;41.10;83.50
21061;DHT22;10689;50.836;3.266;2022-07-19T12:55:28;41.30;82.00
21061;DHT22;10689;50.836;3.266;2022-07-19T12:57:55;41.60;82.20
21061;DHT22;10689;50.836;3.266;2022-07-19T13:00:23;41.60;82.30
21061;DHT22;10689;50.836;3.266;2022-07-19T13:02:50;41.80;81.50
21061;DHT22;10689;50.836;3.266;2022-07-19T13:05:17;42.00;83.20
21061;DHT22;10689;50.836;3.266;2022-07-19T13:07:43;42.00;81.30
21061;DHT22;10689;50.836;3.266;2022-07-19T13:10:10;42.10;82.20
21061;DHT22;10689;50.836;3.266;2022-07-19T13:12:36;42.20;81.50
21061;DHT22;10689;50.836;3.266;2022-07-19T13:15:03;42.30;80.30
21061;DHT22;10689;50.836;3.266;2022-07-19T13:17:29;42.50;79.70
21061;DHT22;10689;50.836;3.266;2022-07-19T13:19:55;42.40;79.80
21061;DHT22;10689;50.836;3.266;2022-07-19T13:22:21;42.40;79.60
21061;DHT22;10689;50.836;3.266;2022-07-19T13:24:46;42.40;79.80
21061;DHT22;10689;50.836;3.266;2022-07-19T13:27:12;42.60;79.70
21061;DHT22;10689;50.836;3.266;2022-07-19T13:29:38;42.70;78.20
21061;DHT22;10689;50.836;3.266;2022-07-19T13:32:05;42.90;77.20
21061;DHT22;10689;50.836;3.266;2022-07-19T13:34:30;42.90;76.00
21061;DHT22;10689;50.836;3.266;2022-07-19T13:36:56;43.00;75.80
21061;DHT22;10689;50.836;3.266;2022-07-19T13:39:22;43.20;76.00
21061;DHT22;10689;50.836;3.266;2022-07-19T13:41:48;43.60;76.30
21061;DHT22;10689;50.836;3.266;2022-07-19T13:44:16;44.10;76.00
21061;DHT22;10689;50.836;3.266;2022-07-19T13:46:41;44.50;72.60
21061;DHT22;10689;50.836;3.266;2022-07-19T13:49:07;44.80;72.00
21061;DHT22;10689;50.836;3.266;2022-07-19T13:51:35;45.20;73.30
21061;DHT22;10689;50.836;3.266;2022-07-19T13:54:01;45.60;72.00
21061;DHT22;10689;50.836;3.266;2022-07-19T13:56:27;45.80;71.80
21061;DHT22;10689;50.836;3.266;2022-07-19T13:58:53;46.20;71.60
21061;DHT22;10689;50.836;3.266;2022-07-19T14:01:19;46.60;72.00
21061;DHT22;10689;50.836;3.266;2022-07-19T14:03:46;47.10;71.80
21061;DHT22;10689;50.836;3.266;2022-07-19T14:06:15;47.50;69.50
21061;DHT22;10689;50.836;3.266;2022-07-19T14:08:41;47.80;68.00
21061;DHT22;10689;50.836;3.266;2022-07-19T14:11:07;48.10;67.10
21061;DHT22;10689;50.836;3.266;2022-07-19T14:13:33;48.30;66.70
21061;DHT22;10689;50.836;3.266;2022-07-19T14:16:02;48.20;66.00
21061;DHT22;10689;50.836;3.266;2022-07-19T14:18:29;48.20;65.30
21061;DHT22;10689;50.836;3.266;2022-07-19T14:20:55;48.30;65.50
21061;DHT22;10689;50.836;3.266;2022-07-19T14:23:22;48.60;65.60
21061;DHT22;10689;50.836;3.266;2022-07-19T14:25:47;48.80;65.40
21061;DHT22;10689;50.836;3.266;2022-07-19T14:28:14;48.90;65.40
21061;DHT22;10689;50.836;3.266;2022-07-19T14:30:41;48.90;66.20
21061;DHT22;10689;50.836;3.266;2022-07-19T14:33:07;48.90;65.90
21061;DHT22;10689;50.836;3.266;2022-07-19T14:35:33;49.00;65.20
21061;DHT22;10689;50.836;3.266;2022-07-19T14:37:59;49.30;64.40
21061;DHT22;10689;50.836;3.266;2022-07-19T14:40:25;49.80;64.40
21061;DHT22;10689;50.836;3.266;2022-07-19T14:42:50;49.80;64.30
21061;DHT22;10689;50.836;3.266;2022-07-19T14:45:16;49.80;64.40
21061;DHT22;10689;50.836;3.266;2022-07-19T14:47:42;49.70;63.70
21061;DHT22;10689;50.836;3.266;2022-07-19T14:50:09;49.80;63.40
21061;DHT22;10689;50.836;3.266;2022-07-19T14:52:35;49.60;63.20
21061;DHT22;10689;50.836;3.266;2022-07-19T14:55:01;49.90;63.10
21061;DHT22;10689;50.836;3.266;2022-07-19T14:57:27;49.80;62.40
21061;DHT22;10689;50.836;3.266;2022-07-19T14:59:53;49.80;61.40
21061;DHT22;10689;50.836;3.266;2022-07-19T15:02:19;49.80;61.90
21061;DHT22;10689;50.836;3.266;2022-07-19T15:04:45;50.20;61.10
21061;DHT22;10689;50.836;3.266;2022-07-19T15:07:11;50.30;62.00
21061;DHT22;10689;50.836;3.266;2022-07-19T15:09:37;50.10;60.20
21061;DHT22;10689;50.836;3.266;2022-07-19T15:12:04;50.20;60.60
21061;DHT22;10689;50.836;3.266;2022-07-19T15:14:30;50.60;60.10
21061;DHT22;10689;50.836;3.266;2022-07-19T15:16:57;50.40;59.10
21061;DHT22;10689;50.836;3.266;2022-07-19T15:19:23;50.40;59.20
21061;DHT22;10689;50.836;3.266;2022-07-19T15:21:49;50.60;58.40
21061;DHT22;10689;50.836;3.266;2022-07-19T15:24:16;50.70;58.50
21061;DHT22;10689;50.836;3.266;2022-07-19T15:26:42;50.90;59.00
21061;DHT22;10689;50.836;3.266;2022-07-19T15:29:08;50.90;57.80
21061;DHT22;10689;50.836;3.266;2022-07-19T15:31:34;50.70;57.90
21061;DHT22;10689;50.836;3.266;2022-07-19T15:34:00;50.80;57.90
21061;DHT22;10689;50.836;3.266;2022-07-19T15:36:26;50.70;58.40
21061;DHT22;10689;50.836;3.266;2022-07-19T15:38:52;50.70;58.60
21061;DHT22;10689;50.836;3.266;2022-07-19T15:41:18;50.80;58.00
21061;DHT22;10689;50.836;3.266;2022-07-19T15:43:44;51.00;57.50
21061;DHT22;10689;50.836;3.266;2022-07-19T15:46:10;50.40;57.00
21061;DHT22;10689;50.836;3.266;2022-07-19T15:48:37;50.40;57.60
21061;DHT22;10689;50.836;3.266;2022-07-19T15:51:03;50.90;58.50
21061;DHT22;10689;50.836;3.266;2022-07-19T15:53:30;51.00;57.60
21061;DHT22;10689;50.836;3.266;2022-07-19T15:55:56;51.10;57.40
21061;DHT22;10689;50.836;3.266;2022-07-19T15:58:22;51.30;57.10
21061;DHT22;10689;50.836;3.266;2022-07-19T16:00:47;51.50;57.00
21061;DHT22;10689;50.836;3.266;2022-07-19T16:03:13;51.60;57.10
21061;DHT22;10689;50.836;3.266;2022-07-19T16:05:39;51.60;57.70